createdAt,value
2022-12-31T00:01:24.408Z,7.20
2022-12-31T00:03:53.531Z,7.10
2022-12-31T00:06:27.923Z,7.10
2022-12-31T00:08:57.782Z,7.10
2022-12-31T00:11:27.236Z,7.10
2022-12-31T00:13:56.671Z,7.10
2022-12-31T00:16:27.070Z,7.10
2022-12-31T00:18:59.463Z,7.10
2022-12-31T00:21:30.896Z,7.20
2022-12-31T00:23:59.978Z,7.10
2022-12-31T00:26:34.763Z,7.00
2022-12-31T00:29:04.728Z,7.10
2022-12-31T00:31:35.052Z,7.10
2022-12-31T00:34:04.557Z,7.10
2022-12-31T00:36:36.307Z,7.30
2022-12-31T00:39:06.988Z,7.20
2022-12-31T00:41:35.923Z,7.20
2022-12-31T00:44:05.219Z,7.20
2022-12-31T00:49:02.301Z,7.20
2022-12-31T00:51:31.387Z,7.20
2022-12-31T00:54:01.238Z,7.30
2022-12-31T00:56:31.776Z,7.40
2022-12-31T00:59:01.406Z,7.40
2022-12-31T01:01:31.455Z,7.40
2022-12-31T01:04:02.922Z,7.40
2022-12-31T01:06:31.752Z,7.40
2022-12-31T01:09:01.656Z,7.50
2022-12-31T01:11:30.109Z,7.50
2022-12-31T01:14:00.633Z,7.90
2022-12-31T01:16:31.800Z,7.90
2022-12-31T01:19:01.566Z,7.90
2022-12-31T01:21:30.563Z,7.90
2022-12-31T01:23:59.581Z,7.90
2022-12-31T01:26:30.203Z,7.90
2022-12-31T01:28:58.760Z,8.00
2022-12-31T01:31:28.542Z,8.00
2022-12-31T01:33:57.098Z,8.00
2022-12-31T01:36:27.943Z,8.00
2022-12-31T01:38:57.489Z,7.90
2022-12-31T01:41:28.527Z,8.00
2022-12-31T01:44:00.370Z,8.00
2022-12-31T01:46:35.147Z,7.90
2022-12-31T01:49:10.044Z,7.90
2022-12-31T01:51:40.561Z,7.90
2022-12-31T01:54:11.623Z,7.90
2022-12-31T01:56:42.787Z,8.10
2022-12-31T01:59:15.773Z,8.20
2022-12-31T02:01:46.770Z,8.20
2022-12-31T02:04:17.775Z,8.40
2022-12-31T02:06:50.391Z,8.50
2022-12-31T02:09:19.290Z,8.60
2022-12-31T02:11:47.698Z,8.60
2022-12-31T02:14:21.830Z,8.50
2022-12-31T02:16:56.602Z,8.50
2022-12-31T02:19:49.576Z,8.50
2022-12-31T02:22:32.826Z,8.50
2022-12-31T02:25:25.577Z,8.50
2022-12-31T02:28:08.588Z,8.70
2022-12-31T02:30:40.830Z,8.70
2022-12-31T02:33:15.491Z,8.80
2022-12-31T02:35:50.077Z,8.80
2022-12-31T02:38:23.667Z,8.80
2022-12-31T02:40:53.618Z,8.90
2022-12-31T02:43:22.092Z,8.90
2022-12-31T02:46:04.421Z,8.80
2022-12-31T02:48:41.627Z,8.90
2022-12-31T02:51:29.081Z,8.90
2022-12-31T02:54:18.753Z,8.80
2022-12-31T02:56:54.285Z,8.70
2022-12-31T02:59:44.573Z,8.80
2022-12-31T03:02:19.586Z,8.70
2022-12-31T03:04:52.467Z,8.70
2022-12-31T03:07:23.554Z,8.60
2022-12-31T03:09:53.112Z,8.50
2022-12-31T03:12:41.692Z,8.60
2022-12-31T03:15:21.214Z,8.60
2022-12-31T03:17:59.787Z,8.70
2022-12-31T03:20:49.836Z,8.70
2022-12-31T03:23:22.406Z,8.70
2022-12-31T03:25:49.914Z,8.70
2022-12-31T03:28:20.000Z,8.60
2022-12-31T03:30:51.607Z,8.70
2022-12-31T03:33:21.910Z,8.80
2022-12-31T03:35:50.910Z,8.80
2022-12-31T03:38:20.421Z,8.80
2022-12-31T03:40:51.681Z,8.70
2022-12-31T03:43:20.885Z,8.80
2022-12-31T03:45:51.676Z,8.80
2022-12-31T03:48:22.614Z,8.80
2022-12-31T03:50:51.631Z,8.90
2022-12-31T03:53:20.142Z,8.90
2022-12-31T03:55:52.346Z,9.10
2022-12-31T03:58:21.101Z,9.00
2022-12-31T04:00:50.269Z,9.30
2022-12-31T04:03:18.941Z,9.40
2022-12-31T04:05:53.722Z,9.40
2022-12-31T04:08:22.546Z,9.40
2022-12-31T04:10:51.132Z,9.40
2022-12-31T04:13:19.566Z,9.30
2022-12-31T04:15:51.365Z,9.30
2022-12-31T04:18:19.834Z,9.40
2022-12-31T04:20:49.744Z,9.40
2022-12-31T04:23:18.185Z,9.50
2022-12-31T04:25:46.538Z,9.60
2022-12-31T04:28:14.941Z,9.60
2022-12-31T04:30:44.179Z,9.60
2022-12-31T04:33:12.662Z,9.70
2022-12-31T04:35:41.140Z,9.80
2022-12-31T04:38:10.960Z,9.80
2022-12-31T04:40:59.642Z,9.70
2022-12-31T04:43:28.193Z,9.70
2022-12-31T04:45:56.604Z,9.60
2022-12-31T04:48:25.412Z,9.60
2022-12-31T04:50:53.913Z,9.70
2022-12-31T04:53:24.534Z,9.50
2022-12-31T04:55:53.395Z,9.60
2022-12-31T04:58:22.107Z,9.70
2022-12-31T05:00:54.464Z,9.70
2022-12-31T05:03:24.568Z,9.70
2022-12-31T05:05:54.564Z,9.70
2022-12-31T05:08:24.351Z,9.80
2022-12-31T05:10:52.761Z,9.70
2022-12-31T05:13:21.241Z,9.70
2022-12-31T05:15:49.985Z,9.70
2022-12-31T05:18:18.907Z,9.80
2022-12-31T05:20:48.055Z,9.90
2022-12-31T05:23:17.984Z,10.00
2022-12-31T05:25:48.340Z,9.80
2022-12-31T05:28:17.232Z,9.80
2022-12-31T05:30:48.832Z,9.90
2022-12-31T05:33:17.534Z,9.90
2022-12-31T05:35:46.541Z,10.00
2022-12-31T05:38:14.918Z,10.00
2022-12-31T05:40:43.319Z,10.00
2022-12-31T05:43:13.136Z,10.10
2022-12-31T05:45:41.384Z,10.10
2022-12-31T05:48:09.759Z,10.00
2022-12-31T05:50:38.162Z,9.90
2022-12-31T05:53:06.553Z,9.90
2022-12-31T05:55:34.945Z,10.10
2022-12-31T05:58:03.369Z,10.10
2022-12-31T06:00:33.145Z,10.10
2022-12-31T06:03:01.699Z,10.10
2022-12-31T06:05:30.574Z,10.30
2022-12-31T06:07:58.983Z,10.40
2022-12-31T06:10:27.410Z,10.30
2022-12-31T06:12:55.824Z,10.30
2022-12-31T06:15:24.618Z,10.30
2022-12-31T06:17:54.389Z,10.40
2022-12-31T06:20:22.808Z,10.40
2022-12-31T06:22:51.482Z,10.40
2022-12-31T06:25:20.057Z,10.40
2022-12-31T06:27:48.438Z,10.50
2022-12-31T06:30:16.994Z,10.60
2022-12-31T06:32:45.384Z,10.50
2022-12-31T06:35:15.235Z,10.60
2022-12-31T06:37:43.514Z,10.60
2022-12-31T06:40:12.754Z,10.50
2022-12-31T06:42:42.196Z,10.50
2022-12-31T06:45:11.382Z,10.50
2022-12-31T06:47:40.170Z,10.50
2022-12-31T06:50:09.788Z,10.50
2022-12-31T06:52:39.854Z,10.50
2022-12-31T06:55:09.905Z,10.60
2022-12-31T06:57:38.888Z,10.60
2022-12-31T07:00:08.605Z,10.60
2022-12-31T07:03:06.601Z,10.80
2022-12-31T07:05:49.701Z,10.90
2022-12-31T07:08:33.762Z,10.90
2022-12-31T07:11:08.624Z,10.90
2022-12-31T07:14:00.461Z,11.00
2022-12-31T07:16:42.685Z,10.90
2022-12-31T07:19:23.981Z,11.00
2022-12-31T07:21:57.455Z,11.00
2022-12-31T07:24:28.725Z,11.10
2022-12-31T07:27:18.420Z,11.10
2022-12-31T07:30:00.826Z,11.20
2022-12-31T07:32:38.789Z,11.30
2022-12-31T07:35:16.903Z,11.30
2022-12-31T07:37:53.135Z,11.20
2022-12-31T07:40:33.234Z,11.20
2022-12-31T07:43:09.658Z,11.30
2022-12-31T07:45:45.657Z,11.40
2022-12-31T07:48:23.506Z,11.50
2022-12-31T07:50:54.337Z,11.60
2022-12-31T07:53:23.554Z,11.60
2022-12-31T07:55:56.337Z,11.70
2022-12-31T07:58:31.405Z,11.80
2022-12-31T08:01:01.353Z,11.90
2022-12-31T08:03:44.211Z,11.90
2022-12-31T08:06:15.973Z,11.90
2022-12-31T08:08:54.158Z,12.00
2022-12-31T08:11:32.450Z,12.00
2022-12-31T08:14:07.966Z,12.00
2022-12-31T08:16:36.892Z,12.00
2022-12-31T08:19:06.010Z,12.10
2022-12-31T08:21:49.541Z,12.00
2022-12-31T08:24:26.706Z,12.00
2022-12-31T08:27:05.803Z,12.00
2022-12-31T08:29:41.374Z,12.00
2022-12-31T08:32:17.941Z,11.90
2022-12-31T08:34:56.418Z,11.90
2022-12-31T08:37:31.165Z,12.00
2022-12-31T08:40:20.653Z,12.00
2022-12-31T08:43:07.832Z,12.00
2022-12-31T08:45:39.222Z,12.10
2022-12-31T08:48:20.006Z,12.10
2022-12-31T08:50:49.180Z,12.20
2022-12-31T08:53:18.101Z,12.20
2022-12-31T08:55:48.497Z,12.30
2022-12-31T08:58:35.862Z,12.30
2022-12-31T09:01:06.972Z,12.30
2022-12-31T09:03:56.478Z,12.30
2022-12-31T09:06:30.396Z,12.50
2022-12-31T09:09:04.515Z,12.50
2022-12-31T09:11:44.214Z,12.50
2022-12-31T09:14:33.890Z,12.60
2022-12-31T09:17:08.567Z,12.60
2022-12-31T09:19:37.011Z,12.60
2022-12-31T09:22:05.842Z,12.60
2022-12-31T09:24:34.825Z,12.60
2022-12-31T09:27:06.936Z,12.60
2022-12-31T09:29:54.563Z,12.60
2022-12-31T09:32:31.151Z,12.60
2022-12-31T09:35:05.038Z,12.60
2022-12-31T09:37:45.037Z,12.80
2022-12-31T09:40:33.495Z,12.90
2022-12-31T09:43:24.432Z,12.90
2022-12-31T09:46:20.787Z,12.90
2022-12-31T09:49:24.504Z,12.90
2022-12-31T09:52:05.402Z,13.00
2022-12-31T09:54:51.698Z,13.00
2022-12-31T09:57:33.638Z,13.00
2022-12-31T10:00:06.035Z,13.00
2022-12-31T10:03:01.559Z,12.90
2022-12-31T10:05:53.983Z,12.90
2022-12-31T10:08:38.368Z,12.90
2022-12-31T10:11:14.511Z,12.90
2022-12-31T10:14:00.971Z,12.90
2022-12-31T10:16:49.385Z,13.00
2022-12-31T10:19:51.211Z,13.10
2022-12-31T10:23:01.355Z,13.10
2022-12-31T10:25:55.610Z,13.10
2022-12-31T10:28:32.289Z,13.20
2022-12-31T10:31:14.278Z,13.20
2022-12-31T10:33:46.274Z,13.20
2022-12-31T10:36:25.318Z,13.30
2022-12-31T10:39:08.919Z,13.30
2022-12-31T10:42:06.069Z,13.30
2022-12-31T10:45:19.921Z,13.40
2022-12-31T10:48:17.927Z,13.50
2022-12-31T10:51:21.253Z,13.50
2022-12-31T10:54:13.889Z,13.70
2022-12-31T10:57:19.687Z,13.80
2022-12-31T11:00:11.532Z,14.00
2022-12-31T11:03:37.234Z,14.00
2022-12-31T11:06:59.715Z,14.20
2022-12-31T11:09:57.544Z,14.30
2022-12-31T11:12:50.661Z,14.30
2022-12-31T11:15:54.215Z,14.40
2022-12-31T11:18:32.270Z,14.50
2022-12-31T11:21:26.269Z,14.50
2022-12-31T11:24:04.313Z,14.60
2022-12-31T11:26:46.892Z,14.60
2022-12-31T11:29:31.986Z,14.60
2022-12-31T11:32:28.185Z,14.60
2022-12-31T11:35:19.126Z,14.50
2022-12-31T11:37:50.257Z,14.50
2022-12-31T11:40:32.236Z,14.60
2022-12-31T11:43:06.129Z,14.70
2022-12-31T11:45:51.105Z,14.70
2022-12-31T11:48:31.321Z,14.70
2022-12-31T11:51:15.129Z,14.60
2022-12-31T11:54:02.977Z,14.60
2022-12-31T11:56:36.525Z,14.40
2022-12-31T11:59:15.691Z,14.30
2022-12-31T12:01:56.042Z,14.30
2022-12-31T12:04:24.806Z,14.30
2022-12-31T12:06:54.197Z,14.30
2022-12-31T12:09:28.839Z,14.30
2022-12-31T12:12:02.682Z,14.30
2022-12-31T12:14:36.308Z,14.40
2022-12-31T12:17:08.916Z,14.40
2022-12-31T12:19:43.707Z,14.50
2022-12-31T12:22:12.948Z,14.50
2022-12-31T12:24:41.678Z,14.40
2022-12-31T12:27:23.971Z,14.40
2022-12-31T12:29:53.886Z,14.40
2022-12-31T12:32:23.141Z,14.40
2022-12-31T12:34:51.757Z,14.50
2022-12-31T12:37:29.885Z,14.50
2022-12-31T12:40:00.863Z,14.50
2022-12-31T12:42:30.283Z,14.60
2022-12-31T12:45:15.106Z,14.60
2022-12-31T12:47:45.070Z,14.60
2022-12-31T12:50:17.559Z,14.70
2022-12-31T12:53:04.109Z,14.70
2022-12-31T12:55:41.563Z,14.80
2022-12-31T12:58:23.093Z,14.70
2022-12-31T13:01:03.922Z,14.80
2022-12-31T13:04:32.898Z,14.80
2022-12-31T13:07:03.218Z,14.90
2022-12-31T13:09:43.008Z,14.90
2022-12-31T13:12:19.627Z,14.90
2022-12-31T13:14:54.980Z,14.90
2022-12-31T13:17:46.045Z,14.90
2022-12-31T13:20:27.968Z,14.90
2022-12-31T13:23:02.446Z,14.90
2022-12-31T13:25:39.732Z,15.00
2022-12-31T13:28:12.996Z,15.10
2022-12-31T13:30:44.850Z,15.10
2022-12-31T13:33:19.291Z,15.10
2022-12-31T13:35:50.982Z,15.10
2022-12-31T13:38:24.201Z,15.10
2022-12-31T13:40:58.969Z,15.10
2022-12-31T13:43:37.773Z,15.10
2022-12-31T13:46:15.867Z,15.10
2022-12-31T13:48:50.583Z,15.10
2022-12-31T13:51:28.034Z,15.10
2022-12-31T13:54:04.990Z,15.10
2022-12-31T13:56:37.921Z,15.10
2022-12-31T13:59:12.074Z,15.00
2022-12-31T14:01:46.122Z,15.00
2022-12-31T14:04:19.708Z,15.00
2022-12-31T14:06:55.381Z,14.90
2022-12-31T14:09:25.958Z,14.90
2022-12-31T14:12:11.001Z,15.00
2022-12-31T14:14:47.110Z,15.00
2022-12-31T14:17:25.304Z,15.10
2022-12-31T14:20:03.750Z,15.00
2022-12-31T14:22:38.870Z,15.00
2022-12-31T14:25:15.457Z,15.10
2022-12-31T14:27:45.915Z,15.10
2022-12-31T14:30:18.596Z,15.00
2022-12-31T14:33:06.316Z,15.00
2022-12-31T14:35:48.030Z,15.00
2022-12-31T14:38:27.901Z,15.00
2022-12-31T14:41:04.561Z,15.00
2022-12-31T14:43:44.046Z,14.90
2022-12-31T14:46:25.448Z,14.90
2022-12-31T14:49:02.621Z,15.10
2022-12-31T14:51:35.846Z,15.10
2022-12-31T14:54:05.057Z,15.30
2022-12-31T14:56:39.178Z,15.40
2022-12-31T14:59:28.133Z,15.30
2022-12-31T15:01:58.137Z,15.20
2022-12-31T15:04:34.510Z,15.10
2022-12-31T15:07:12.097Z,14.90
2022-12-31T15:09:58.288Z,14.80
2022-12-31T15:12:50.717Z,14.80
2022-12-31T15:15:33.273Z,14.60
2022-12-31T15:18:25.141Z,14.50
2022-12-31T15:21:15.880Z,14.70
2022-12-31T15:23:46.748Z,14.80
2022-12-31T15:26:24.135Z,14.90
2022-12-31T15:29:01.656Z,14.80
2022-12-31T15:31:30.691Z,14.80
2022-12-31T15:34:01.496Z,14.80
2022-12-31T15:36:32.497Z,14.90
2022-12-31T15:39:26.720Z,14.90
2022-12-31T15:44:50.331Z,14.90
2022-12-31T15:47:28.359Z,15.00
2022-12-31T15:49:58.686Z,14.90
2022-12-31T15:52:35.270Z,14.80
2022-12-31T15:55:07.710Z,14.80
2022-12-31T15:57:40.027Z,15.00
2022-12-31T16:00:15.794Z,15.20
2022-12-31T16:02:45.642Z,15.20
2022-12-31T16:05:21.856Z,15.10
2022-12-31T16:07:53.423Z,15.20
2022-12-31T16:10:28.543Z,15.20
2022-12-31T16:12:58.750Z,15.20
2022-12-31T16:15:30.367Z,15.10
2022-12-31T16:18:05.293Z,15.10
2022-12-31T16:20:35.616Z,15.10
2022-12-31T16:23:16.807Z,15.10
2022-12-31T16:25:47.335Z,15.00
2022-12-31T16:28:20.286Z,14.90
2022-12-31T16:30:59.957Z,14.70
2022-12-31T16:33:28.657Z,14.70
2022-12-31T16:35:58.636Z,14.70
2022-12-31T16:38:34.655Z,14.70
2022-12-31T16:41:18.671Z,14.70
2022-12-31T16:43:49.092Z,14.70
2022-12-31T16:46:21.015Z,14.60
2022-12-31T16:48:53.926Z,14.50
2022-12-31T16:51:26.704Z,14.30
2022-12-31T16:53:55.489Z,14.30
2022-12-31T16:56:31.894Z,14.30
2022-12-31T16:59:03.869Z,14.40
2022-12-31T17:01:35.672Z,14.30
2022-12-31T17:04:10.204Z,14.30
2022-12-31T17:06:38.837Z,14.30
2022-12-31T17:09:15.198Z,14.20
2022-12-31T17:11:52.824Z,14.30
2022-12-31T17:14:24.085Z,14.40
2022-12-31T17:17:02.655Z,14.40
2022-12-31T17:19:39.851Z,14.50
2022-12-31T17:22:14.081Z,14.50
2022-12-31T17:24:43.098Z,14.60
2022-12-31T17:27:13.042Z,14.60
2022-12-31T17:29:41.469Z,14.60
2022-12-31T17:32:30.991Z,14.60
2022-12-31T17:34:59.341Z,14.50
2022-12-31T17:37:29.898Z,14.60
2022-12-31T17:40:40.591Z,14.60
2022-12-31T17:42:52.178Z,14.70
2022-12-31T17:45:22.741Z,14.70
2022-12-31T17:47:53.849Z,14.70
2022-12-31T17:50:25.001Z,14.80
2022-12-31T17:52:57.210Z,15.00
2022-12-31T17:55:26.061Z,15.00
2022-12-31T17:57:58.786Z,14.90
2022-12-31T18:00:28.261Z,15.00
2022-12-31T18:02:56.820Z,14.90
2022-12-31T18:05:25.795Z,15.00
2022-12-31T18:07:55.184Z,15.00
2022-12-31T18:10:25.553Z,14.90
2022-12-31T18:12:55.445Z,15.00
2022-12-31T18:15:25.601Z,15.00
2022-12-31T18:17:54.108Z,15.10
2022-12-31T18:20:22.687Z,15.00
2022-12-31T18:22:51.955Z,15.10
2022-12-31T18:25:23.076Z,15.00
2022-12-31T18:27:52.545Z,15.00
2022-12-31T18:30:23.406Z,14.90
2022-12-31T18:32:51.891Z,15.10
2022-12-31T18:38:15.347Z,15.10
2022-12-31T18:40:46.800Z,15.20
2022-12-31T18:43:17.536Z,15.10
2022-12-31T18:45:48.353Z,15.00
2022-12-31T18:48:17.140Z,14.90
2022-12-31T18:50:46.325Z,14.90
2022-12-31T18:53:18.552Z,14.80
2022-12-31T18:55:49.623Z,14.70
2022-12-31T18:58:18.549Z,14.70
2022-12-31T19:00:49.467Z,14.90
2022-12-31T19:03:20.027Z,14.60
2022-12-31T19:05:50.662Z,14.50
2022-12-31T19:08:19.451Z,14.50
2022-12-31T19:10:48.829Z,14.50
2022-12-31T19:13:19.046Z,14.40
2022-12-31T19:15:50.540Z,14.40
2022-12-31T19:18:19.888Z,14.30
2022-12-31T19:20:52.938Z,14.30
2022-12-31T19:23:22.582Z,14.30
2022-12-31T19:25:51.440Z,14.40
2022-12-31T19:28:22.210Z,14.40
2022-12-31T19:30:52.283Z,14.40
2022-12-31T19:33:21.101Z,14.50
2022-12-31T19:35:50.294Z,14.60
2022-12-31T19:38:20.931Z,14.40
2022-12-31T19:40:50.832Z,14.50
2022-12-31T19:43:20.389Z,14.50
2022-12-31T19:45:49.698Z,14.40
2022-12-31T19:48:22.207Z,14.30
2022-12-31T19:50:54.727Z,14.30
2022-12-31T19:53:23.888Z,14.40
2022-12-31T19:55:52.924Z,14.40
2022-12-31T19:58:23.031Z,14.30
2022-12-31T20:00:55.900Z,14.20
2022-12-31T20:03:28.475Z,14.20
2022-12-31T20:06:04.006Z,14.30
2022-12-31T20:08:32.545Z,14.50
2022-12-31T20:11:09.272Z,14.40
2022-12-31T20:13:38.280Z,14.30
2022-12-31T20:16:08.657Z,14.50
2022-12-31T20:18:40.081Z,14.50
2022-12-31T20:21:11.902Z,14.50
2022-12-31T20:23:40.452Z,14.50
2022-12-31T20:26:08.915Z,14.50
2022-12-31T20:28:37.677Z,14.50
2022-12-31T20:31:07.676Z,14.50
2022-12-31T20:33:36.197Z,14.50
2022-12-31T20:36:07.762Z,14.60
2022-12-31T20:38:36.593Z,14.60
2022-12-31T20:41:05.918Z,14.40
2022-12-31T20:43:35.234Z,14.40
2022-12-31T20:46:12.592Z,14.40
2022-12-31T20:48:43.331Z,14.50
2022-12-31T20:51:13.922Z,14.40
2022-12-31T20:53:47.649Z,14.40
2022-12-31T20:56:16.853Z,14.50
2022-12-31T20:58:45.893Z,14.50
2022-12-31T21:01:15.204Z,14.50
2022-12-31T21:06:36.399Z,14.30
2022-12-31T21:09:06.789Z,14.40
2022-12-31T21:12:04.685Z,14.40
2022-12-31T21:14:33.098Z,14.30
2022-12-31T21:17:01.608Z,14.30
2022-12-31T21:19:30.073Z,14.30
2022-12-31T21:22:00.098Z,14.40
2022-12-31T21:24:28.525Z,14.30
2022-12-31T21:26:57.700Z,14.30
2022-12-31T21:29:29.930Z,14.40
2022-12-31T21:32:01.220Z,14.30
2022-12-31T21:34:29.636Z,14.40
2022-12-31T21:36:59.472Z,14.40
2022-12-31T21:39:27.734Z,14.40
2022-12-31T21:41:56.064Z,14.50
2022-12-31T21:44:26.537Z,14.60
2022-12-31T21:47:45.667Z,14.50
2022-12-31T21:49:45.756Z,14.60
2022-12-31T21:52:28.461Z,14.50
2022-12-31T21:55:15.989Z,14.50
2022-12-31T21:58:15.603Z,14.70
2022-12-31T22:00:51.463Z,14.70
2022-12-31T22:03:27.469Z,14.90
2022-12-31T22:05:59.150Z,14.80
2022-12-31T22:08:30.609Z,15.00
2022-12-31T22:10:59.263Z,15.10
2022-12-31T22:13:27.751Z,15.00
2022-12-31T22:16:04.211Z,14.90
2022-12-31T22:18:35.394Z,14.80
2022-12-31T22:21:06.540Z,14.80
2022-12-31T22:23:39.124Z,14.90
2022-12-31T22:26:08.960Z,14.90
2022-12-31T22:28:40.388Z,14.80
2022-12-31T22:31:10.217Z,14.80
2022-12-31T22:33:38.642Z,14.70
2022-12-31T22:36:11.147Z,14.70
2022-12-31T22:38:41.307Z,14.90
2022-12-31T22:41:12.559Z,14.90
2022-12-31T22:43:42.902Z,14.80
2022-12-31T22:46:12.682Z,14.80
2022-12-31T22:48:41.592Z,14.70
2022-12-31T22:51:10.939Z,14.90
2022-12-31T22:53:41.336Z,14.90
2022-12-31T22:56:10.836Z,14.80
2022-12-31T22:58:39.647Z,14.70
2022-12-31T23:01:10.184Z,14.50
2022-12-31T23:03:38.759Z,14.50
2022-12-31T23:06:07.660Z,14.50
2022-12-31T23:08:36.295Z,14.30
2022-12-31T23:11:08.850Z,14.30
2022-12-31T23:13:57.935Z,14.30
2022-12-31T23:16:46.071Z,14.40
2022-12-31T23:19:33.000Z,14.70
2022-12-31T23:22:19.111Z,14.80
2022-12-31T23:24:47.870Z,14.90
2022-12-31T23:27:17.921Z,14.70
2022-12-31T23:29:47.795Z,14.70
2022-12-31T23:32:17.343Z,14.80
2022-12-31T23:34:46.850Z,14.70
2022-12-31T23:37:16.431Z,14.80
2022-12-31T23:39:45.059Z,14.90
2022-12-31T23:42:13.971Z,14.80
2022-12-31T23:44:43.796Z,14.80
2022-12-31T23:47:14.927Z,14.80
2022-12-31T23:49:43.628Z,14.70
2022-12-31T23:52:12.632Z,14.90
2022-12-31T23:54:41.378Z,14.90
2022-12-31T23:57:10.521Z,14.90
2022-12-31T23:59:39.103Z,14.80
